Whale Watcher II — WDB8211 — position and weather

sailwx.info

Track history (hours):
 
Tides and Currents Weather Stations Pressure Air Temp Water Temp Dewpoint Dewpoint Depression Visibility Wind Speed Wind Dir Waves Ship Positions

Whale Watcher II

Owner: Ronald L. Robbins LLC, Cape May, NJ. More information available from US FCC via Universal Licensing System and Coast Guard Vessel Documentation Center.

Last reported at 2016-Jun-13 18:34 UTC. Time now 2016-Jul-26 19:52 UTC.
Position N 29°55' W 090°04'.
Warning: this ship's position is 43 days out of date.

Date/timePositionNaut miles runAvg speedWind from/ knotsBaromVisibWave heightAir tempDewpointWater temp
2016-Jun-13 18:34N 29°55' W 090°04'0 0.0
2016-Jun-13 17:34N 29°55' W 090°04'0 0.1
2016-Jun-13 16:34N 29°56' W 090°04'0 0.0
2016-Jun-13 15:34N 29°56' W 090°04'1 1.3
2016-Jun-13 14:34N 29°55' W 090°05'2 2.4
2016-Jun-13 13:33N 29°52' W 090°04'3 2.7
2016-Jun-13 12:33N 29°50' W 090°03'0 0.1
2016-Jun-13 11:33N 29°50' W 090°03'0 0.0
2016-Jun-13 10:33N 29°50' W 090°03'0 0.0
2016-Jun-13 09:33N 29°50' W 090°03'0 0.0
2016-Jun-13 08:34N 29°50' W 090°03'0 0.0
2016-Jun-13 07:34N 29°50' W 090°03'1 1.4
2016-Jun-13 06:34N 29°50' W 090°04'2 2.2
2016-Jun-13 05:34N 29°52' W 090°04'3 3.0
2016-Jun-13 04:33N 29°55' W 090°05'1 1.4
2016-Jun-13 03:34N 29°55' W 090°04'0 0.0
2016-Jun-13 02:34N 29°55' W 090°04'0 0.0
2016-Jun-13 01:34N 29°55' W 090°04'0 0.0
2016-Jun-13 00:34N 29°55' W 090°04'0 0.0
2016-Jun-12 23:34N 29°55' W 090°04'6 0.5
2016-Jun-12 12:30N 29°56' W 090°10'3 3.5
2016-Jun-12 11:33N 29°55' W 090°07'3 3.2
2016-Jun-12 10:33N 29°56' W 090°04'0 0.0
2016-Jun-12 09:33N 29°56' W 090°04'0 0.0
2016-Jun-12 08:33N 29°56' W 090°04'0 0.0
2016-Jun-12 07:33N 29°56' W 090°04'0 0.0
2016-Jun-12 06:33N 29°56' W 090°04'0 0.0
2016-Jun-12 04:34N 29°56' W 090°04'0 0.0
2016-Jun-12 03:33N 29°56' W 090°04'0 0.0
2016-Jun-12 02:34N 29°56' W 090°04'0 0.0
2016-Jun-12 01:34N 29°56' W 090°04'0 0.0
2016-Jun-12 00:33N 29°56' W 090°04'0 0.0
2016-Jun-11 23:34N 29°56' W 090°04'2 2.0
2016-Jun-11 22:33N 29°57' W 090°03'3 3.2
2016-Jun-11 21:33N 29°56' W 089°59'4 4.1
2016-Jun-11 20:33N 29°55' W 089°55'4 0.4
2016-Jun-11 12:23N 29°56' W 089°59'1 0.3
2016-Jun-11 09:30N 29°56' W 089°60'0 0.0
2016-Jun-11 08:33N 29°56' W 089°60'1 0.4
2016-Jun-11 06:29N 29°56' W 089°59'1 0.9
2016-Jun-11 05:34N 29°55' W 089°58'4 3.8
2016-Jun-11 04:28N 29°52' W 089°54'3 2.5
2016-Jun-11 03:29N 29°55' W 089°55'7 8.2
2016-Jun-11 02:33N 29°56' W 090°04'1 1.1
2016-Jun-11 01:33N 29°55' W 090°04'0 0.0
2016-Jun-11 00:34N 29°55' W 090°04'0 0.1
2016-Jun-10 23:33N 29°55' W 090°04'0 0.1
2016-Jun-10 22:34N 29°56' W 090°04'5 4.6
2016-Jun-10 21:33N 29°57' W 090°09'4 0.2
2016-Jun-10 03:30N 29°55' W 090°12'3 3.7
2016-Jun-10 02:34N 29°56' W 090°08'4 3.7
2016-Jun-10 01:34N 29°55' W 090°04'0 0.4
2016-Jun-10 00:34N 29°56' W 090°04'0 0.3
2016-Jun-09 23:33N 29°56' W 090°03'0 0.3
2016-Jun-09 22:34N 29°56' W 090°04'0 0.1
2016-Jun-09 21:33N 29°56' W 090°04'0 0.1
2016-Jun-09 20:33N 29°56' W 090°04'2 1.8
2016-Jun-09 19:34N 29°57' W 090°03'9 4.1
2016-Jun-09 17:19N 29°52' W 089°54'3 4.5
2016-Jun-09 16:33N 29°52' W 089°58'5 5.1
2016-Jun-09 15:33N 29°48' W 090°01'4 0.3
2016-Jun-09 03:27N 29°44' W 089°60'8 8.9
2016-Jun-09 02:32N 29°52' W 089°59'3 3.4
2016-Jun-09 01:33N 29°55' W 089°58'5 5.3
2016-Jun-09 00:33N 29°56' W 090°04'0 0.1
2016-Jun-08 23:11N 29°56' W 090°04'0 0.0
2016-Jun-08 22:33N 29°56' W 090°04'0 0.0
2016-Jun-08 21:32N 29°56' W 090°04'2 1.9
2016-Jun-08 20:33N 29°57' W 090°03'4 3.6
2016-Jun-08 19:33N 29°56' W 089°60'4 3.4
2016-Jun-08 18:26N 29°55' W 089°55'7 1.2
2016-Jun-08 12:19N 29°57' W 090°04'1 1.9
2016-Jun-08 11:33N 29°56' W 090°04'0 0.0
2016-Jun-08 10:33N 29°56' W 090°04'0 0.0
2016-Jun-08 09:33N 29°56' W 090°04'0 0.0
2016-Jun-08 08:33N 29°56' W 090°04'0 0.0
2016-Jun-08 07:34N 29°56' W 090°04'0 0.2
2016-Jun-08 06:33N 29°55' W 090°04'0 0.2
2016-Jun-08 05:33N 29°56' W 090°04'7 0.2
2016-Jun-07 02:33N 29°56' W 090°11'3 3.4
2016-Jun-07 01:33N 29°55' W 090°08'4 3.5
2016-Jun-07 00:33N 29°56' W 090°04'3 3.3
2016-Jun-06 23:33N 29°54' W 090°07'10 6.6
2016-Jun-06 22:06N 29°58' W 090°18'0 0.0
2016-Jun-06 21:29N 29°58' W 090°18'0 0.0
2016-Jun-06 15:31N 29°58' W 090°18'5 0.6
2016-Jun-06 06:25N 29°55' W 090°12'4 4.1
2016-Jun-06 05:33N 29°57' W 090°08'4 3.8
2016-Jun-06 04:33N 29°55' W 090°04'1 0.8
2016-Jun-06 03:33N 29°56' W 090°04'0 0.1
2016-Jun-06 02:34N 29°56' W 090°04'0 0.0
2016-Jun-06 01:34N 29°56' W 090°04'0 0.0
2016-Jun-06 00:33N 29°56' W 090°04'0 0.0
2016-Jun-05 23:33N 29°56' W 090°04'0 0.0
2016-Jun-05 16:18N 29°56' W 090°04'0 0.0
2016-Jun-05 15:33N 29°56' W 090°04'2 2.4
2016-Jun-05 14:31N 29°53' W 090°05'3 2.6
2016-Jun-05 13:33N 29°51' W 090°04'4 3.8
2016-Jun-05 12:33N 29°55' W 090°05'2 1.5
2016-Jun-05 11:33N 29°55' W 090°04'0 0.0
2016-Jun-05 10:33N 29°55' W 090°04'0 0.0
2016-Jun-05 09:33N 29°55' W 090°04'0 0.0
2016-Jun-05 08:33N 29°55' W 090°04'0 0.0
2016-Jun-05 07:33N 29°55' W 090°04'0 0.0
2016-Jun-05 06:33N 29°55' W 090°04'0 0.0
2016-Jun-05 05:33N 29°55' W 090°04'0 0.0
2016-Jun-05 04:33N 29°55' W 090°04'0 0.0
2016-Jun-05 03:33N 29°55' W 090°04'0 0.0
2016-Jun-05 02:33N 29°55' W 090°04'0 0.0
2016-Jun-04 22:13N 29°55' W 090°04'0 0.0
2016-Jun-04 16:24N 29°55' W 090°04'0 0.0
2016-Jun-04 15:22N 29°55' W 090°04'0 0.0
2016-Jun-04 14:33N 29°55' W 090°04'0 0.0
2016-Jun-04 13:33N 29°55' W 090°04'0 0.0
2016-Jun-04 12:33N 29°55' W 090°04'0 0.0
2016-Jun-04 11:33N 29°55' W 090°04'0 0.0
2016-Jun-04 10:33N 29°55' W 090°04'3 2.7
2016-Jun-04 09:33N 29°57' W 090°01'1 0.8
2016-Jun-04 08:33N 29°57' W 089°60'0 0.0
2016-Jun-04 07:33N 29°57' W 089°60'0 0.0
2016-Jun-04 06:33N 29°57' W 089°60'0 0.2
2016-Jun-04 05:33N 29°56' W 089°60'0 0.4
2016-Jun-04 04:33N 29°56' W 090°00'0 0.0
2016-Jun-04 03:33N 29°56' W 090°00'3 2.9
2016-Jun-04 02:33N 29°55' W 089°57'4 3.9
2016-Jun-04 01:33N 29°52' W 089°55'2 1.8
2016-Jun-04 00:33N 29°53' W 089°57'0 0.1
2016-Jun-03 23:33N 29°53' W 089°57'2 2.0
2016-Jun-03 22:31N 29°52' W 089°54'3 3.6
2016-Jun-03 21:33N 29°52' W 089°58'5 4.8
2016-Jun-03 20:33N 29°47' W 090°01'  
Track history (hours):
 
Tides and Currents Weather Stations Pressure Air Temp Water Temp Dewpoint Dewpoint Depression Visibility Wind Speed Wind Dir Waves Ship Positions

Whale Watcher II

Owner: Ronald L. Robbins LLC, Cape May, NJ. More information available from US FCC via Universal Licensing System and Coast Guard Vessel Documentation Center.

Last reported at 2016-Jun-13 18:34 UTC. Time now 2016-Jul-26 19:52 UTC.
Position N 29°55' W 090°04'.
Warning: this ship's position is 43 days out of date.

Date/timePositionNaut miles runAvg speedWind from/ knotsBaromVisibWave heightAir tempDewpointWater temp
2016-Jun-13 18:34N 29°55' W 090°04'0 0.0
2016-Jun-13 17:34N 29°55' W 090°04'0 0.1
2016-Jun-13 16:34N 29°56' W 090°04'0 0.0
2016-Jun-13 15:34N 29°56' W 090°04'1 1.3
2016-Jun-13 14:34N 29°55' W 090°05'2 2.4
2016-Jun-13 13:33N 29°52' W 090°04'3 2.7
2016-Jun-13 12:33N 29°50' W 090°03'0 0.1
2016-Jun-13 11:33N 29°50' W 090°03'0 0.0
2016-Jun-13 10:33N 29°50' W 090°03'0 0.0
2016-Jun-13 09:33N 29°50' W 090°03'0 0.0
2016-Jun-13 08:34N 29°50' W 090°03'0 0.0
2016-Jun-13 07:34N 29°50' W 090°03'1 1.4
2016-Jun-13 06:34N 29°50' W 090°04'2 2.2
2016-Jun-13 05:34N 29°52' W 090°04'3 3.0
2016-Jun-13 04:33N 29°55' W 090°05'1 1.4
2016-Jun-13 03:34N 29°55' W 090°04'0 0.0
2016-Jun-13 02:34N 29°55' W 090°04'0 0.0
2016-Jun-13 01:34N 29°55' W 090°04'0 0.0
2016-Jun-13 00:34N 29°55' W 090°04'0 0.0
2016-Jun-12 23:34N 29°55' W 090°04'6 0.5
2016-Jun-12 12:30N 29°56' W 090°10'3 3.5
2016-Jun-12 11:33N 29°55' W 090°07'3 3.2
2016-Jun-12 10:33N 29°56' W 090°04'0 0.0
2016-Jun-12 09:33N 29°56' W 090°04'0 0.0
2016-Jun-12 08:33N 29°56' W 090°04'0 0.0
2016-Jun-12 07:33N 29°56' W 090°04'0 0.0
2016-Jun-12 06:33N 29°56' W 090°04'0 0.0
2016-Jun-12 04:34N 29°56' W 090°04'0 0.0
2016-Jun-12 03:33N 29°56' W 090°04'0 0.0
2016-Jun-12 02:34N 29°56' W 090°04'0 0.0
2016-Jun-12 01:34N 29°56' W 090°04'0 0.0
2016-Jun-12 00:33N 29°56' W 090°04'0 0.0
2016-Jun-11 23:34N 29°56' W 090°04'2 2.0
2016-Jun-11 22:33N 29°57' W 090°03'3 3.2
2016-Jun-11 21:33N 29°56' W 089°59'4 4.1
2016-Jun-11 20:33N 29°55' W 089°55'4 0.4
2016-Jun-11 12:23N 29°56' W 089°59'1 0.3
2016-Jun-11 09:30N 29°56' W 089°60'0 0.0
2016-Jun-11 08:33N 29°56' W 089°60'1 0.4
2016-Jun-11 06:29N 29°56' W 089°59'1 0.9
2016-Jun-11 05:34N 29°55' W 089°58'4 3.8
2016-Jun-11 04:28N 29°52' W 089°54'3 2.5
2016-Jun-11 03:29N 29°55' W 089°55'7 8.2
2016-Jun-11 02:33N 29°56' W 090°04'1 1.1
2016-Jun-11 01:33N 29°55' W 090°04'0 0.0
2016-Jun-11 00:34N 29°55' W 090°04'0 0.1
2016-Jun-10 23:33N 29°55' W 090°04'0 0.1
2016-Jun-10 22:34N 29°56' W 090°04'5 4.6
2016-Jun-10 21:33N 29°57' W 090°09'4 0.2
2016-Jun-10 03:30N 29°55' W 090°12'3 3.7
2016-Jun-10 02:34N 29°56' W 090°08'4 3.7
2016-Jun-10 01:34N 29°55' W 090°04'0 0.4
2016-Jun-10 00:34N 29°56' W 090°04'0 0.3
2016-Jun-09 23:33N 29°56' W 090°03'0 0.3
2016-Jun-09 22:34N 29°56' W 090°04'0 0.1
2016-Jun-09 21:33N 29°56' W 090°04'0 0.1
2016-Jun-09 20:33N 29°56' W 090°04'2 1.8
2016-Jun-09 19:34N 29°57' W 090°03'9 4.1
2016-Jun-09 17:19N 29°52' W 089°54'3 4.5
2016-Jun-09 16:33N 29°52' W 089°58'5 5.1
2016-Jun-09 15:33N 29°48' W 090°01'4 0.3
2016-Jun-09 03:27N 29°44' W 089°60'8 8.9
2016-Jun-09 02:32N 29°52' W 089°59'3 3.4
2016-Jun-09 01:33N 29°55' W 089°58'5 5.3
2016-Jun-09 00:33N 29°56' W 090°04'0 0.1
2016-Jun-08 23:11N 29°56' W 090°04'0 0.0
2016-Jun-08 22:33N 29°56' W 090°04'0 0.0
2016-Jun-08 21:32N 29°56' W 090°04'2 1.9
2016-Jun-08 20:33N 29°57' W 090°03'4 3.6
2016-Jun-08 19:33N 29°56' W 089°60'4 3.4
2016-Jun-08 18:26N 29°55' W 089°55'7 1.2
2016-Jun-08 12:19N 29°57' W 090°04'1 1.9
2016-Jun-08 11:33N 29°56' W 090°04'0 0.0
2016-Jun-08 10:33N 29°56' W 090°04'0 0.0
2016-Jun-08 09:33N 29°56' W 090°04'0 0.0
2016-Jun-08 08:33N 29°56' W 090°04'0 0.0
2016-Jun-08 07:34N 29°56' W 090°04'0 0.2
2016-Jun-08 06:33N 29°55' W 090°04'0 0.2
2016-Jun-08 05:33N 29°56' W 090°04'7 0.2
2016-Jun-07 02:33N 29°56' W 090°11'3 3.4
2016-Jun-07 01:33N 29°55' W 090°08'4 3.5
2016-Jun-07 00:33N 29°56' W 090°04'3 3.3
2016-Jun-06 23:33N 29°54' W 090°07'10 6.6
2016-Jun-06 22:06N 29°58' W 090°18'0 0.0
2016-Jun-06 21:29N 29°58' W 090°18'0 0.0
2016-Jun-06 15:31N 29°58' W 090°18'5 0.6
2016-Jun-06 06:25N 29°55' W 090°12'4 4.1
2016-Jun-06 05:33N 29°57' W 090°08'4 3.8
2016-Jun-06 04:33N 29°55' W 090°04'1 0.8
2016-Jun-06 03:33N 29°56' W 090°04'0 0.1
2016-Jun-06 02:34N 29°56' W 090°04'0 0.0
2016-Jun-06 01:34N 29°56' W 090°04'0 0.0
2016-Jun-06 00:33N 29°56' W 090°04'0 0.0
2016-Jun-05 23:33N 29°56' W 090°04'0 0.0
2016-Jun-05 16:18N 29°56' W 090°04'0 0.0
2016-Jun-05 15:33N 29°56' W 090°04'2 2.4
2016-Jun-05 14:31N 29°53' W 090°05'3 2.6
2016-Jun-05 13:33N 29°51' W 090°04'4 3.8
2016-Jun-05 12:33N 29°55' W 090°05'2 1.5
2016-Jun-05 11:33N 29°55' W 090°04'0 0.0
2016-Jun-05 10:33N 29°55' W 090°04'0 0.0
2016-Jun-05 09:33N 29°55' W 090°04'0 0.0
2016-Jun-05 08:33N 29°55' W 090°04'0 0.0
2016-Jun-05 07:33N 29°55' W 090°04'0 0.0
2016-Jun-05 06:33N 29°55' W 090°04'0 0.0
2016-Jun-05 05:33N 29°55' W 090°04'0 0.0
2016-Jun-05 04:33N 29°55' W 090°04'0 0.0
2016-Jun-05 03:33N 29°55' W 090°04'0 0.0
2016-Jun-05 02:33N 29°55' W 090°04'0 0.0
2016-Jun-04 22:13N 29°55' W 090°04'0 0.0
2016-Jun-04 16:24N 29°55' W 090°04'0 0.0
2016-Jun-04 15:22N 29°55' W 090°04'0 0.0
2016-Jun-04 14:33N 29°55' W 090°04'0 0.0
2016-Jun-04 13:33N 29°55' W 090°04'0 0.0
2016-Jun-04 12:33N 29°55' W 090°04'0 0.0
2016-Jun-04 11:33N 29°55' W 090°04'0 0.0
2016-Jun-04 10:33N 29°55' W 090°04'3 2.7
2016-Jun-04 09:33N 29°57' W 090°01'1 0.8
2016-Jun-04 08:33N 29°57' W 089°60'0 0.0
2016-Jun-04 07:33N 29°57' W 089°60'0 0.0
2016-Jun-04 06:33N 29°57' W 089°60'0 0.2
2016-Jun-04 05:33N 29°56' W 089°60'0 0.4
2016-Jun-04 04:33N 29°56' W 090°00'0 0.0
2016-Jun-04 03:33N 29°56' W 090°00'3 2.9
2016-Jun-04 02:33N 29°55' W 089°57'4 3.9
2016-Jun-04 01:33N 29°52' W 089°55'2 1.8
2016-Jun-04 00:33N 29°53' W 089°57'0 0.1
2016-Jun-03 23:33N 29°53' W 089°57'2 2.0
2016-Jun-03 22:31N 29°52' W 089°54'3 3.6
2016-Jun-03 21:33N 29°52' W 089°58'5 4.8
2016-Jun-03 20:33N 29°47' W 090°01'  

Dump ship's entire track history